Time;durP1;ratioP1;P1;durP2;ratioP2;P2;SDS_P1;SDS_P2;PMS_P1;PMS_P2;Temp;Humidity;BMP_temperature;BMP_pressure;BME280_temperature;BME280_humidity;BME280_pressure;Samples;Min_cycle;Max_cycle;Signal;HPM_P1;HPM_P2
2022/12/08 00:00:52;;;;;;;12.15;5.25;;;2.60;99.90;;;;;;5053840;28;20032;-68
2022/12/08 00:03:18;;;;;;;11.57;5.57;;;2.70;99.90;;;;;;5051169;28;20055;-67
2022/12/08 00:11:18;;;;;;;13.05;4.97;;;2.60;99.90;;;;;;5053051;28;20033;-68
2022/12/08 00:13:44;;;;;;;13.70;5.85;;;2.60;99.90;;;;;;5052942;28;20040;-69
2022/12/08 00:16:11;;;;;;;9.80;5.25;;;2.60;99.90;;;;;;5052049;28;20014;-71
2022/12/08 00:18:37;;;;;;;15.32;6.00;;;2.60;99.90;;;;;;5052678;28;20113;-67
2022/12/08 00:21:03;;;;;;;10.82;5.55;;;2.60;99.90;;;;;;5053491;28;20041;-69
2022/12/08 00:23:29;;;;;;;12.65;5.13;;;2.60;99.90;;;;;;5053761;28;20063;-68
2022/12/08 00:25:54;;;;;;;15.30;5.43;;;2.60;99.90;;;;;;5053192;28;20025;-70
2022/12/08 00:28:20;;;;;;;11.60;5.68;;;2.60;99.90;;;;;;5052390;28;20017;-68
2022/12/08 00:30:45;;;;;;;16.73;4.97;;;2.60;99.90;;;;;;5053030;28;20025;-69
2022/12/08 00:33:12;;;;;;;7.80;4.50;;;2.50;99.90;;;;;;5052342;28;20492;-70
2022/12/08 00:35:38;;;;;;;11.63;5.65;;;2.60;99.90;;;;;;5053020;28;20025;-68
2022/12/08 00:38:03;;;;;;;13.60;5.60;;;2.60;99.90;;;;;;5053579;28;20029;-70
2022/12/08 00:40:29;;;;;;;12.45;5.82;;;2.60;99.90;;;;;;5052365;28;20021;-67
2022/12/08 00:42:55;;;;;;;14.27;5.22;;;2.50;99.90;;;;;;5053057;28;20021;-68
2022/12/08 00:45:21;;;;;;;19.58;5.55;;;2.60;99.90;;;;;;5053154;28;20484;-69
2022/12/08 00:47:46;;;;;;;16.77;5.63;;;2.60;99.90;;;;;;5052329;28;20112;-68
2022/12/08 00:50:12;;;;;;;12.90;4.90;;;2.60;99.90;;;;;;5052690;28;20041;-68
2022/12/08 00:52:38;;;;;;;14.30;5.50;;;2.60;99.90;;;;;;5051855;28;20971;-70
2022/12/08 00:55:04;;;;;;;14.25;5.68;;;2.60;99.90;;;;;;5051573;28;20025;-71
2022/12/08 00:57:31;;;;;;;17.15;5.45;;;2.60;99.90;;;;;;5052636;28;20465;-69
2022/12/08 00:59:56;;;;;;;13.30;5.65;;;2.70;99.90;;;;;;5052276;28;20512;-69
2022/12/08 01:02:23;;;;;;;14.07;4.97;;;2.70;99.90;;;;;;5051921;28;20046;-69
2022/12/08 01:04:49;;;;;;;13.30;4.88;;;2.60;99.90;;;;;;5052355;28;20041;-68
2022/12/08 01:07:14;;;;;;;7.15;4.13;;;2.60;99.90;;;;;;5051963;28;20155;-69
2022/12/08 01:09:40;;;;;;;13.70;4.38;;;2.70;99.90;;;;;;5052384;28;20039;-69
2022/12/08 01:12:06;;;;;;;8.73;4.68;;;2.60;99.90;;;;;;5052846;28;20104;-70
2022/12/08 01:14:32;;;;;;;15.48;4.78;;;2.70;99.90;;;;;;5051072;28;20159;-69
2022/12/08 01:16:58;;;;;;;9.10;3.97;;;2.70;99.90;;;;;;5034043;28;20637;-69
2022/12/08 01:19:23;;;;;;;13.68;4.70;;;2.70;99.90;;;;;;5052169;28;20088;-68
2022/12/08 01:21:49;;;;;;;10.07;4.50;;;2.70;99.90;;;;;;5051911;28;20461;-71
2022/12/08 01:24:17;;;;;;;11.95;4.40;;;2.70;99.90;;;;;;5051749;28;20036;-69
2022/12/08 01:26:43;;;;;;;11.95;4.10;;;2.70;99.90;;;;;;5052333;28;20022;-68
2022/12/08 01:29:09;;;;;;;9.82;4.25;;;2.70;99.90;;;;;;5052343;28;20035;-71
2022/12/08 01:31:35;;;;;;;5.22;3.33;;;2.70;99.90;;;;;;5051881;28;20026;-70
2022/12/08 01:34:01;;;;;;;7.63;4.07;;;2.70;99.90;;;;;;5032340;28;20080;-68
2022/12/08 01:36:29;;;;;;;9.23;4.45;;;2.70;99.90;;;;;;5050074;28;20033;-70
2022/12/08 01:38:57;;;;;;;10.90;4.43;;;2.70;99.90;;;;;;5052456;28;20025;-69
2022/12/08 01:41:25;;;;;;;9.10;4.07;;;2.70;99.90;;;;;;5051346;28;20018;-68
2022/12/08 01:43:55;;;;;;;8.68;3.70;;;2.70;99.90;;;;;;5050092;28;20089;-70
2022/12/08 01:46:22;;;;;;;13.68;4.03;;;2.70;99.90;;;;;;5051412;28;20432;-68
2022/12/08 01:48:49;;;;;;;11.75;4.10;;;2.70;99.90;;;;;;5051760;28;20121;-68
2022/12/08 01:51:15;;;;;;;9.63;3.85;;;2.70;99.90;;;;;;5050142;28;20025;-69
2022/12/08 01:53:40;;;;;;;12.57;3.97;;;2.70;99.90;;;;;;5052085;28;20052;-70
2022/12/08 01:56:11;;;;;;;8.43;3.78;;;2.70;99.90;;;;;;5051642;28;20041;-69
2022/12/08 01:58:42;;;;;;;11.10;4.05;;;2.70;99.90;;;;;;5050494;28;20027;-70
2022/12/08 02:01:10;;;;;;;13.07;4.38;;;2.70;99.90;;;;;;5051412;28;20131;-70
2022/12/08 02:03:39;;;;;;;17.63;3.83;;;2.70;99.90;;;;;;5051400;28;20480;-70
2022/12/08 02:06:05;;;;;;;10.07;3.92;;;2.70;99.90;;;;;;5051879;28;20025;-71
2022/12/08 02:08:32;;;;;;;8.57;3.90;;;2.70;99.90;;;;;;5051434;28;20029;-69
2022/12/08 02:10:58;;;;;;;11.45;3.90;;;2.70;99.90;;;;;;5051659;28;20021;-69
2022/12/08 02:13:24;;;;;;;15.85;4.10;;;2.70;99.90;;;;;;5051120;28;20033;-69
2022/12/08 02:16:04;;;;;;;12.60;3.90;;;2.70;99.90;;;;;;5050313;28;20034;-69
2022/12/08 02:18:57;;;;;;;10.75;3.72;;;2.70;99.90;;;;;;5051397;28;20030;-69
2022/12/08 02:21:51;;;;;;;15.10;4.53;;;2.80;99.90;;;;;;5051398;28;20045;-70
2022/12/08 02:24:46;;;;;;;10.30;3.47;;;2.80;99.90;;;;;;5050990;28;20025;-66
2022/12/08 02:27:11;;;;;;;7.85;3.53;;;2.80;99.90;;;;;;5054424;28;20025;-71
2022/12/08 02:30:05;;;;;;;6.72;3.33;;;2.80;99.90;;;;;;5054191;28;20026;-69
2022/12/08 02:32:59;;;;;;;7.18;3.63;;;2.80;99.90;;;;;;5054970;28;20045;-68
2022/12/08 02:35:36;;;;;;;13.15;3.40;;;2.80;99.90;;;;;;5054935;28;20021;-68
2022/12/08 02:38:16;;;;;;;7.50;3.75;;;2.70;99.90;;;;;;5054810;28;20028;-67
2022/12/08 02:41:14;;;;;;;7.25;3.90;;;2.60;99.90;;;;;;5055020;28;20029;-67
2022/12/08 02:43:48;;;;;;;13.77;3.80;;;2.60;99.90;;;;;;5043515;28;20041;-69
2022/12/08 02:46:21;;;;;;;10.10;3.85;;;2.50;99.90;;;;;;5055317;28;20033;-70
2022/12/08 02:48:48;;;;;;;6.68;3.42;;;2.50;99.90;;;;;;5055140;28;20120;-69
2022/12/08 02:51:14;;;;;;;12.20;4.32;;;2.50;99.90;;;;;;5055059;28;20034;-69
2022/12/08 02:53:40;;;;;;;8.25;4.05;;;2.40;99.90;;;;;;5055075;28;20116;-69
2022/12/08 02:56:28;;;;;;;5.85;3.67;;;2.30;99.90;;;;;;5055450;28;20025;-71
2022/12/08 02:59:18;;;;;;;7.07;4.22;;;2.40;99.90;;;;;;5054482;28;20093;-71
2022/12/08 03:02:10;;;;;;;15.48;4.78;;;2.30;99.90;;;;;;5054836;28;20025;-71
2022/12/08 03:04:47;;;;;;;7.28;4.18;;;2.30;99.90;;;;;;5053672;28;20025;-72
2022/12/08 03:07:42;;;;;;;8.40;4.32;;;2.20;99.90;;;;;;5053241;28;20021;-69
2022/12/08 03:10:19;;;;;;;;;;;2.20;99.90;;;;;;5055174;28;20082;-70
2022/12/08 03:13:00;;;;;;;8.30;3.72;;;2.20;99.90;;;;;;5054104;28;19913;-71
2022/12/08 03:15:26;;;;;;;5.90;3.60;;;2.10;99.90;;;;;;5054223;28;20081;-72
2022/12/08 03:17:56;;;;;;;10.95;4.43;;;2.20;99.90;;;;;;5053747;28;20032;-73
2022/12/08 03:20:24;;;;;;;12.50;4.40;;;2.20;99.90;;;;;;5053640;28;20049;-74
2022/12/08 03:22:54;;;;;;;9.10;4.78;;;2.20;99.90;;;;;;5054707;28;20036;-70
2022/12/08 03:25:25;;;;;;;11.65;4.57;;;2.20;99.90;;;;;;5054623;28;20036;-74
2022/12/08 03:27:51;;;;;;;11.10;6.10;;;2.20;99.90;;;;;;5054023;28;20089;-71
2022/12/08 03:30:17;;;;;;;10.10;6.10;;;2.10;99.90;;;;;;5053513;28;20034;-72
2022/12/08 03:32:55;;;;;;;14.38;6.95;;;2.10;99.90;;;;;;5053316;28;20045;-72
2022/12/08 03:35:28;;;;;;;15.02;7.80;;;2.10;99.90;;;;;;5052992;28;20053;-70
2022/12/08 03:38:03;;;;;;;17.48;7.38;;;2.10;99.90;;;;;;5054606;28;20033;-73
2022/12/08 03:40:28;;;;;;;18.92;8.35;;;2.10;99.90;;;;;;5035317;28;20457;-71
2022/12/08 03:42:54;;;;;;;22.92;8.95;;;2.10;99.90;;;;;;5053752;28;20061;-72
2022/12/08 03:45:20;;;;;;;14.00;8.35;;;2.10;99.90;;;;;;5054626;28;20028;-71
2022/12/08 03:47:46;;;;;;;16.92;8.80;;;2.20;99.90;;;;;;5053892;28;20024;-72
2022/12/08 03:50:11;;;;;;;17.13;8.48;;;2.20;99.90;;;;;;5053444;28;20025;-71
2022/12/08 03:52:37;;;;;;;15.90;7.78;;;2.20;99.90;;;;;;5054268;28;20037;-73
2022/12/08 03:55:03;;;;;;;13.45;7.10;;;2.20;99.90;;;;;;5053887;28;20072;-71
2022/12/08 03:57:28;;;;;;;13.07;6.47;;;2.30;99.90;;;;;;5053869;28;20029;-71
2022/12/08 03:59:54;;;;;;;12.48;6.13;;;2.30;99.90;;;;;;5035529;28;20044;-70
2022/12/08 04:02:20;;;;;;;9.23;5.85;;;2.40;99.90;;;;;;5051993;28;20022;-70
2022/12/08 04:04:45;;;;;;;14.38;6.18;;;2.40;99.90;;;;;;5053584;28;20022;-71
2022/12/08 04:07:11;;;;;;;11.85;5.45;;;2.40;99.90;;;;;;5053799;28;20055;-69
2022/12/08 04:09:37;;;;;;;14.07;5.10;;;2.50;99.90;;;;;;5053634;28;20029;-71
2022/12/08 04:12:03;;;;;;;12.95;5.07;;;2.50;99.90;;;;;;5050720;28;20449;-70
2022/12/08 04:14:29;;;;;;;19.95;6.00;;;2.50;99.90;;;;;;5053078;28;20033;-70
2022/12/08 04:16:54;;;;;;;9.45;5.30;;;2.50;99.90;;;;;;5053243;28;20354;-72
2022/12/08 04:19:20;;;;;;;10.73;5.05;;;2.50;99.90;;;;;;5053609;28;20094;-69
2022/12/08 04:21:46;;;;;;;9.57;4.18;;;2.60;99.90;;;;;;5052523;28;20052;-71
2022/12/08 04:24:11;;;;;;;12.63;4.82;;;2.60;99.90;;;;;;5053317;28;20033;-72
2022/12/08 04:26:37;;;;;;;11.50;4.78;;;2.60;99.90;;;;;;5052329;28;20472;-69
2022/12/08 04:29:02;;;;;;;8.20;4.10;;;2.60;99.90;;;;;;5053566;28;20047;-69
2022/12/08 04:31:28;;;;;;;8.95;4.07;;;2.60;99.90;;;;;;5053516;28;20029;-70
2022/12/08 04:33:54;;;;;;;10.15;4.63;;;2.60;99.90;;;;;;5052529;28;20041;-70
2022/12/08 04:36:20;;;;;;;15.68;5.60;;;2.60;99.90;;;;;;5052970;28;20029;-70
2022/12/08 04:38:45;;;;;;;17.83;6.32;;;2.60;99.90;;;;;;5052882;28;20458;-71
2022/12/08 04:41:11;;;;;;;18.83;5.38;;;2.70;99.90;;;;;;5060143;28;20127;-70
2022/12/08 04:43:37;;;;;;;10.40;5.18;;;2.60;99.90;;;;;;5052497;28;20037;-72
2022/12/08 04:46:06;;;;;;;10.98;5.70;;;2.60;99.90;;;;;;5053139;28;20029;-70
2022/12/08 04:48:32;;;;;;;9.93;5.00;;;2.70;99.90;;;;;;5052775;28;20028;-70
2022/12/08 04:50:58;;;;;;;13.60;5.18;;;2.70;99.90;;;;;;5052515;28;20135;-71
2022/12/08 04:53:25;;;;;;;12.65;5.20;;;2.60;99.90;;;;;;5052271;28;20428;-71
2022/12/08 04:55:51;;;;;;;11.80;5.72;;;2.70;99.90;;;;;;5034199;28;20075;-72
2022/12/08 04:58:18;;;;;;;16.00;5.55;;;2.60;99.90;;;;;;5052660;28;20104;-69
2022/12/08 05:00:45;;;;;;;13.07;5.53;;;2.70;99.90;;;;;;5052899;28;20032;-70
2022/12/08 05:03:11;;;;;;;12.43;5.50;;;2.70;99.90;;;;;;5052912;28;20028;-70
2022/12/08 05:05:37;;;;;;;10.18;5.45;;;2.70;99.90;;;;;;5052850;28;20047;-70
2022/12/08 05:08:03;;;;;;;12.73;5.45;;;2.60;99.90;;;;;;5035397;28;20028;-71
2022/12/08 05:10:29;;;;;;;16.65;5.97;;;2.60;99.90;;;;;;5051549;28;20021;-70
2022/12/08 05:12:56;;;;;;;10.32;4.55;;;2.60;99.90;;;;;;5051807;28;20048;-73
2022/12/08 05:15:22;;;;;;;8.85;5.00;;;2.70;99.90;;;;;;5051935;28;20026;-69
2022/12/08 05:17:47;;;;;;;9.60;5.32;;;2.60;99.90;;;;;;5051107;28;20028;-70
2022/12/08 05:20:13;;;;;;;8.50;4.63;;;2.70;99.90;;;;;;5051011;28;20334;-70
2022/12/08 05:22:39;;;;;;;11.15;4.75;;;2.60;99.90;;;;;;5052013;28;20045;-71
2022/12/08 05:25:04;;;;;;;10.15;4.63;;;2.60;99.90;;;;;;5050956;28;20052;-70
2022/12/08 05:27:30;;;;;;;7.72;4.60;;;2.60;99.90;;;;;;5050770;28;20043;-70
2022/12/08 05:29:56;;;;;;;9.80;3.72;;;2.60;99.90;;;;;;5051033;28;20028;-69
2022/12/08 05:32:21;;;;;;;11.20;4.40;;;2.60;99.90;;;;;;5051885;28;20029;-70
2022/12/08 05:34:47;;;;;;;9.85;4.65;;;2.60;99.90;;;;;;5050617;28;20053;-68
2022/12/08 05:37:12;;;;;;;11.85;4.75;;;2.60;99.90;;;;;;5050954;28;20025;-70
2022/12/08 05:39:38;;;;;;;8.45;4.38;;;2.60;99.90;;;;;;5051647;28;20039;-70
2022/12/08 05:42:05;;;;;;;10.13;4.25;;;2.60;99.90;;;;;;5051824;28;20049;-71
2022/12/08 05:44:30;;;;;;;8.35;4.13;;;2.60;99.90;;;;;;5050869;28;20036;-68
2022/12/08 05:46:56;;;;;;;10.10;4.10;;;2.70;99.90;;;;;;5032192;28;20033;-69
2022/12/08 05:49:21;;;;;;;9.57;4.18;;;2.60;99.90;;;;;;5034507;28;20087;-70
2022/12/08 05:51:47;;;;;;;8.05;4.05;;;2.60;99.90;;;;;;5051647;28;20025;-70
2022/12/08 05:54:13;;;;;;;13.60;4.28;;;2.60;99.90;;;;;;5050870;28;20053;-69
2022/12/08 05:56:38;;;;;;;7.40;4.22;;;2.60;99.90;;;;;;5033396;28;20052;-70
2022/12/08 05:59:07;;;;;;;10.30;4.60;;;2.60;99.90;;;;;;5051185;28;20029;-68
2022/12/08 06:01:33;;;;;;;7.88;4.53;;;2.60;99.90;;;;;;5051735;28;20029;-70
2022/12/08 06:04:01;;;;;;;8.73;4.22;;;2.60;99.90;;;;;;5051199;28;20096;-69
2022/12/08 06:06:27;;;;;;;12.57;4.15;;;2.60;99.90;;;;;;5050563;28;20036;-68
2022/12/08 06:08:53;;;;;;;10.88;5.22;;;2.70;99.90;;;;;;5050451;28;20034;-69
2022/12/08 06:11:27;;;;;;;13.55;5.55;;;2.70;99.90;;;;;;5050347;28;20021;-67
2022/12/08 06:13:54;;;;;;;;;;;2.70;99.90;;;;;;5051393;28;20079;-68
2022/12/08 06:16:20;;;;;;;10.55;5.30;;;2.80;99.90;;;;;;5052015;28;19906;-69
2022/12/08 06:18:46;;;;;;;18.95;6.53;;;2.70;99.90;;;;;;5050811;28;20026;-68
2022/12/08 06:21:13;;;;;;;16.17;6.05;;;2.70;99.90;;;;;;5049923;28;20053;-70
2022/12/08 06:23:40;;;;;;;12.82;6.35;;;2.70;99.90;;;;;;5050736;28;20022;-69
2022/12/08 06:26:12;;;;;;;15.80;7.70;;;2.70;99.90;;;;;;5049918;28;20025;-68
2022/12/08 06:28:38;;;;;;;10.63;5.93;;;2.70;99.90;;;;;;5033529;28;20467;-71
2022/12/08 06:31:14;;;;;;;12.75;5.30;;;2.70;99.90;;;;;;5050967;28;20037;-68
2022/12/08 06:33:40;;;;;;;10.55;6.25;;;2.70;99.90;;;;;;5051380;28;20069;-67
2022/12/08 06:36:06;;;;;;;8.32;5.00;;;2.70;99.90;;;;;;5050580;28;20037;-67
2022/12/08 06:38:32;;;;;;;12.18;5.18;;;2.70;99.90;;;;;;5051496;28;20021;-71
2022/12/08 06:40:58;;;;;;;11.52;5.45;;;2.70;99.90;;;;;;5050317;28;20024;-67
2022/12/08 06:43:25;;;;;;;10.63;5.28;;;2.70;99.90;;;;;;5050366;28;20068;-67
2022/12/08 06:45:51;;;;;;;11.20;5.35;;;2.70;99.90;;;;;;5050247;28;20117;-70
2022/12/08 06:48:18;;;;;;;12.52;6.28;;;2.70;99.90;;;;;;5049445;28;20519;-70
2022/12/08 06:50:44;;;;;;;10.13;4.97;;;2.70;99.90;;;;;;5045950;28;20034;-70
2022/12/08 06:53:14;;;;;;;11.63;5.50;;;2.70;99.90;;;;;;5050273;28;20037;-69
2022/12/08 06:55:50;;;;;;;16.88;5.70;;;2.70;99.90;;;;;;5049206;28;20025;-70
2022/12/08 06:58:17;;;;;;;14.32;5.70;;;2.60;99.90;;;;;;5032531;28;20362;-68
2022/12/08 07:00:42;;;;;;;12.18;5.20;;;2.70;99.90;;;;;;5050487;28;20045;-72
2022/12/08 07:03:09;;;;;;;13.95;5.85;;;2.60;99.90;;;;;;5048421;28;20046;-69
2022/12/08 07:05:36;;;;;;;20.23;7.43;;;2.70;99.90;;;;;;5050525;28;20021;-71
2022/12/08 07:08:03;;;;;;;15.65;7.13;;;2.60;99.90;;;;;;5050275;28;20030;-69
2022/12/08 07:10:29;;;;;;;17.73;6.70;;;2.70;99.90;;;;;;5049630;28;20017;-68
2022/12/08 07:12:55;;;;;;;15.18;8.02;;;2.60;99.90;;;;;;5051390;28;20040;-68
2022/12/08 07:15:21;;;;;;;24.83;7.95;;;2.60;99.90;;;;;;5053077;28;20059;-69
2022/12/08 07:17:47;;;;;;;15.70;8.13;;;2.60;99.90;;;;;;5051319;28;20021;-67
2022/12/08 07:20:13;;;;;;;11.48;6.90;;;2.60;99.90;;;;;;5052606;28;20041;-69
2022/12/08 07:22:39;;;;;;;13.02;6.57;;;2.60;99.90;;;;;;5054573;28;20029;-69
2022/12/08 07:25:05;;;;;;;12.77;6.75;;;2.50;99.90;;;;;;5047374;28;20086;-68
2022/12/08 07:27:31;;;;;;;11.80;6.10;;;2.50;99.90;;;;;;5054304;28;20025;-68
2022/12/08 07:29:57;;;;;;;8.63;4.82;;;2.50;99.90;;;;;;5050349;28;20060;-69
2022/12/08 07:32:22;;;;;;;11.25;5.88;;;2.50;99.90;;;;;;5050962;28;20378;-69
2022/12/08 07:34:48;;;;;;;10.75;5.63;;;2.50;99.90;;;;;;5052606;28;20492;-70
2022/12/08 07:37:14;;;;;;;11.15;4.82;;;2.40;99.90;;;;;;5052445;28;20068;-71
2022/12/08 07:39:39;;;;;;;11.25;5.50;;;2.50;99.90;;;;;;5049948;28;20028;-72
2022/12/08 07:42:05;;;;;;;12.45;5.18;;;2.40;99.90;;;;;;5051818;28;20029;-69
2022/12/08 07:44:30;;;;;;;11.35;5.15;;;2.40;99.90;;;;;;5051081;28;20044;-70
2022/12/08 07:46:56;;;;;;;9.15;5.00;;;2.40;99.90;;;;;;5034573;28;20637;-68
2022/12/08 07:49:22;;;;;;;13.00;4.88;;;2.40;99.90;;;;;;5052134;28;20100;-69
2022/12/08 07:51:48;;;;;;;8.55;4.95;;;2.30;99.90;;;;;;5049175;28;20044;-68
2022/12/08 07:54:13;;;;;;;8.70;4.30;;;2.40;99.90;;;;;;5048983;28;20041;-69
2022/12/08 07:56:39;;;;;;;12.52;5.13;;;2.40;99.90;;;;;;5051391;28;20037;-70
2022/12/08 07:59:05;;;;;;;8.98;4.32;;;2.40;99.90;;;;;;5034781;28;20892;-72
2022/12/08 08:01:32;;;;;;;8.52;4.32;;;2.40;99.90;;;;;;5051221;28;20044;-70
2022/12/08 08:04:01;;;;;;;7.68;3.90;;;2.40;99.90;;;;;;5047434;28;20105;-72
2022/12/08 08:06:27;;;;;;;9.38;3.75;;;2.40;99.90;;;;;;5049596;28;20037;-71
2022/12/08 08:08:53;;;;;;;6.90;3.38;;;2.30;99.90;;;;;;5050151;28;20025;-70
2022/12/08 08:11:19;;;;;;;6.30;2.90;;;2.40;99.90;;;;;;5052802;28;20108;-69
2022/12/08 08:13:45;;;;;;;8.45;3.47;;;2.30;99.90;;;;;;5051051;28;20100;-68
2022/12/08 08:16:12;;;;;;;6.75;3.40;;;2.30;99.90;;;;;;5051132;28;20041;-69
2022/12/08 08:18:38;;;;;;;10.18;3.30;;;2.30;99.90;;;;;;5050210;28;20029;-68
2022/12/08 08:21:04;;;;;;;13.75;3.30;;;2.40;99.90;;;;;;5052041;28;20060;-69
2022/12/08 08:23:31;;;;;;;8.77;3.03;;;2.40;99.90;;;;;;5050437;28;20035;-73
2022/12/08 08:26:01;;;;;;;4.70;2.72;;;2.40;99.90;;;;;;5049427;28;20105;-71
2022/12/08 08:28:28;;;;;;;8.90;3.20;;;2.40;99.90;;;;;;5048434;28;20084;-69
2022/12/08 08:30:54;;;;;;;5.30;2.50;;;2.40;99.90;;;;;;5052199;28;20041;-69
2022/12/08 08:33:20;;;;;;;4.43;2.55;;;2.40;99.90;;;;;;5052960;28;20033;-69
2022/12/08 08:35:45;;;;;;;4.50;2.60;;;2.40;99.90;;;;;;5051190;28;20037;-71
2022/12/08 08:38:11;;;;;;;4.03;1.90;;;2.40;99.90;;;;;;5052156;28;20088;-67
2022/12/08 08:40:37;;;;;;;5.85;2.03;;;2.40;99.90;;;;;;5051249;28;20040;-70
2022/12/08 08:43:04;;;;;;;5.82;2.75;;;2.40;99.90;;;;;;5051338;28;20068;-70
2022/12/08 08:45:29;;;;;;;5.10;2.25;;;2.40;99.90;;;;;;5033250;28;20409;-70
2022/12/08 08:47:55;;;;;;;6.35;2.38;;;2.30;99.90;;;;;;5050365;28;20031;-70
2022/12/08 08:50:21;;;;;;;3.42;2.00;;;2.40;99.90;;;;;;5050518;28;20029;-71
2022/12/08 08:52:46;;;;;;;3.70;1.88;;;2.40;99.90;;;;;;5049683;28;20033;-70
2022/12/08 08:55:12;;;;;;;4.30;2.40;;;2.40;99.90;;;;;;5050275;28;20041;-69
2022/12/08 08:57:38;;;;;;;17.58;3.05;;;2.40;99.90;;;;;;5049806;28;20033;-71
2022/12/08 09:00:05;;;;;;;8.63;2.75;;;2.40;99.90;;;;;;5047540;28;20084;-69
2022/12/08 09:02:31;;;;;;;3.53;2.08;;;2.50;99.90;;;;;;5048193;28;20032;-70
2022/12/08 09:04:56;;;;;;;4.22;2.30;;;2.50;99.90;;;;;;5047607;28;20104;-69
2022/12/08 09:07:22;;;;;;;7.60;2.42;;;2.60;99.90;;;;;;5051353;28;20099;-70
2022/12/08 09:09:47;;;;;;;3.78;2.22;;;2.70;99.90;;;;;;5050401;28;20436;-70
2022/12/08 09:12:13;;;;;;;3.92;2.42;;;2.80;99.90;;;;;;5050386;28;20116;-71
2022/12/08 09:14:39;;;;;;;4.95;2.47;;;3.00;99.90;;;;;;5048765;28;20026;-70
2022/12/08 09:17:05;;;;;;;4.47;2.50;;;3.20;99.90;;;;;;5049364;28;20037;-71
2022/12/08 09:19:31;;;;;;;5.32;2.60;;;3.20;99.90;;;;;;5046739;28;20113;-67
2022/12/08 09:21:57;;;;;;;4.10;2.47;;;3.30;99.90;;;;;;5048094;28;20049;-68
2022/12/08 09:24:22;;;;;;;5.60;2.35;;;3.30;99.90;;;;;;5045556;28;20057;-67
2022/12/08 09:26:48;;;;;;;3.58;2.65;;;3.40;99.90;;;;;;5046997;28;20029;-71
2022/12/08 09:29:16;;;;;;;4.15;2.35;;;3.50;99.90;;;;;;5044767;28;20301;-68
2022/12/08 09:31:42;;;;;;;3.78;2.30;;;3.70;99.90;;;;;;5042835;28;20025;-70
2022/12/08 09:34:09;;;;;;;4.93;2.25;;;3.80;99.90;;;;;;5050250;28;20066;-68
2022/12/08 09:36:35;;;;;;;10.27;3.10;;;3.90;99.90;;;;;;5047983;28;20029;-66
2022/12/08 09:39:00;;;;;;;4.50;2.60;;;3.80;99.90;;;;;;5050016;28;20473;-69
2022/12/08 09:41:33;;;;;;;4.95;3.00;;;3.80;99.90;;;;;;5049806;28;20017;-71
2022/12/08 09:44:41;;;;;;;7.57;3.47;;;3.90;99.90;;;;;;5050319;28;20037;-70
2022/12/08 09:47:27;;;;;;;8.65;3.95;;;4.00;99.90;;;;;;5049021;28;20045;-70
2022/12/08 09:50:08;;;;;;;12.63;3.55;;;4.00;99.90;;;;;;5046701;28;20031;-66
2022/12/08 09:52:40;;;;;;;9.18;4.90;;;4.20;99.90;;;;;;5048528;28;20038;-68
2022/12/08 09:55:18;;;;;;;12.15;4.20;;;4.30;99.90;;;;;;5040733;28;20041;-68
2022/12/08 09:57:48;;;;;;;4.75;2.90;;;4.50;99.90;;;;;;5047143;28;20056;-70
2022/12/08 10:00:14;;;;;;;6.20;3.42;;;4.70;99.90;;;;;;5041285;28;20036;-71
2022/12/08 10:02:41;;;;;;;5.97;3.15;;;4.70;99.90;;;;;;5045505;28;20032;-70
2022/12/08 10:05:13;;;;;;;5.20;2.50;;;4.50;99.90;;;;;;5046198;28;20112;-70
2022/12/08 10:07:48;;;;;;;4.97;2.60;;;4.50;99.90;;;;;;5048329;28;20028;-72
2022/12/08 10:10:14;;;;;;;8.27;2.80;;;4.40;99.90;;;;;;5047709;28;20021;-72
2022/12/08 10:12:43;;;;;;;6.50;2.67;;;4.40;99.90;;;;;;5047840;28;20037;-71
2022/12/08 10:15:33;;;;;;;5.22;2.63;;;4.50;99.90;;;;;;5048816;28;20033;-71
2022/12/08 10:18:02;;;;;;;6.85;2.50;;;4.70;99.90;;;;;;5048081;28;20035;-69
2022/12/08 10:20:40;;;;;;;5.00;2.05;;;4.80;99.90;;;;;;5048343;28;20699;-72
2022/12/08 10:23:12;;;;;;;8.60;2.50;;;4.90;99.90;;;;;;5046748;28;20029;-71
2022/12/08 10:25:51;;;;;;;6.20;2.75;;;4.90;99.90;;;;;;5044823;28;20025;-70
2022/12/08 10:28:16;;;;;;;5.40;2.70;;;5.10;99.90;;;;;;5045941;28;20022;-71
2022/12/08 10:30:42;;;;;;;10.02;2.65;;;5.20;99.90;;;;;;5029300;28;20122;-70
2022/12/08 10:33:16;;;;;;;5.22;2.80;;;5.20;99.90;;;;;;5049165;28;20044;-72
2022/12/08 10:35:42;;;;;;;8.80;2.92;;;5.30;99.90;;;;;;5049266;28;20479;-71
2022/12/08 10:38:17;;;;;;;5.75;3.05;;;5.30;99.90;;;;;;5049381;28;20063;-71
2022/12/08 10:40:44;;;;;;;5.28;3.65;;;5.20;99.90;;;;;;5049246;28;20095;-70
2022/12/08 10:43:16;;;;;;;5.90;3.88;;;5.10;99.90;;;;;;5047215;28;20051;-72
2022/12/08 10:45:42;;;;;;;7.43;4.18;;;5.00;99.90;;;;;;5048055;28;20017;-73
2022/12/08 10:48:19;;;;;;;9.95;3.97;;;5.00;99.90;;;;;;5051537;28;20128;-69
2022/12/08 10:50:46;;;;;;;5.75;3.45;;;4.80;99.90;;;;;;5050823;28;20034;-70
2022/12/08 10:53:14;;;;;;;7.65;3.92;;;4.70;99.90;;;;;;5049687;28;20056;-70
2022/12/08 10:55:44;;;;;;;8.35;4.32;;;4.50;99.90;;;;;;5050473;28;20013;-71
2022/12/08 10:58:28;;;;;;;9.05;2.95;;;4.50;99.90;;;;;;5049336;28;20132;-70
2022/12/08 11:01:04;;;;;;;8.52;2.95;;;4.70;99.90;;;;;;5051942;28;20038;-68
2022/12/08 11:03:34;;;;;;;4.43;2.45;;;4.80;99.90;;;;;;5056243;28;20037;-71
2022/12/08 11:06:08;;;;;;;5.82;2.20;;;5.10;99.90;;;;;;5049829;28;20112;-71
2022/12/08 11:08:50;;;;;;;5.07;2.80;;;5.20;99.90;;;;;;5048959;28;20069;-72
2022/12/08 11:11:16;;;;;;;9.30;3.00;;;5.20;99.90;;;;;;5032466;28;20117;-70
2022/12/08 11:13:42;;;;;;;7.05;4.50;;;5.00;99.90;;;;;;5049814;28;20113;-69
2022/12/08 11:16:10;;;;;;;6.15;3.55;;;4.80;99.90;;;;;;5045665;28;20180;-71
2022/12/08 11:18:48;;;;;;;5.68;3.53;;;4.70;99.90;;;;;;5049774;28;20021;-74
2022/12/08 11:21:17;;;;;;;9.18;3.95;;;4.60;99.90;;;;;;5050916;28;20049;-71
2022/12/08 11:23:48;;;;;;;8.95;3.50;;;4.70;99.90;;;;;;5034090;28;20091;-71
2022/12/08 11:26:27;;;;;;;7.03;3.40;;;5.00;99.90;;;;;;5047047;28;20012;-70
2022/12/08 11:28:53;;;;;;;6.03;2.55;;;5.30;99.90;;;;;;5050921;28;20029;-69
2022/12/08 11:31:37;;;;;;;8.25;2.97;;;5.50;99.90;;;;;;5052039;28;20029;-71
2022/12/08 11:34:04;;;;;;;7.72;2.20;;;5.60;99.90;;;;;;5049893;28;20473;-70
2022/12/08 11:36:34;;;;;;;7.63;3.00;;;5.70;99.90;;;;;;5051586;28;20034;-67
2022/12/08 11:39:03;;;;;;;5.38;2.28;;;5.80;99.90;;;;;;5047599;28;20021;-66
2022/12/08 11:41:36;;;;;;;5.88;2.25;;;5.90;99.90;;;;;;5050344;28;20404;-71
2022/12/08 11:44:27;;;;;;;12.43;2.20;;;5.90;99.90;;;;;;5049793;28;20035;-68
2022/12/08 11:46:59;;;;;;;5.43;2.35;;;6.00;99.90;;;;;;5050169;28;20339;-69
2022/12/08 11:49:35;;;;;;;4.47;2.35;;;6.10;99.90;;;;;;5051901;28;20112;-70
2022/12/08 11:52:22;;;;;;;5.28;2.28;;;6.30;99.90;;;;;;5031452;28;20118;-73
2022/12/08 11:54:58;;;;;;;3.45;2.00;;;6.60;99.90;;;;;;5049832;28;20021;-69
2022/12/08 11:57:28;;;;;;;5.00;2.13;;;6.90;99.90;;;;;;5050103;28;20444;-71
2022/12/08 11:59:56;;;;;;;5.68;2.60;;;7.30;99.90;;;;;;5051254;28;20017;-70
2022/12/08 12:02:27;;;;;;;11.57;4.00;;;7.50;99.90;;;;;;5050411;28;20077;-70
2022/12/08 12:05:10;;;;;;;3.90;2.38;;;7.80;99.90;;;;;;5050049;28;20105;-73
2022/12/08 12:08:13;;;;;;;6.10;2.95;;;7.90;99.90;;;;;;5050688;28;20087;-72
2022/12/08 12:12:11;;;;;;;6.47;3.00;;;8.10;99.90;;;;;;5052535;28;20068;-71
2022/12/08 12:14:18;;;;;;;5.20;2.85;;;8.10;99.90;;;;;;5051633;28;20601;-73
2022/12/08 12:17:02;;;;;;;6.60;2.38;;;8.20;99.90;;;;;;5036588;28;20037;-71
2022/12/08 12:19:29;;;;;;;;;;;7.90;99.90;;;;;;5049907;28;20064;-71
2022/12/08 12:21:56;;;;;;;7.72;2.30;;;7.40;99.90;;;;;;5055651;28;19905;-69
2022/12/08 12:24:29;;;;;;;5.53;2.35;;;7.20;99.90;;;;;;5050385;28;20162;-68
2022/12/08 12:27:04;;;;;;;11.07;1.60;;;7.10;99.90;;;;;;5051148;28;20021;-68
2022/12/08 12:29:36;;;;;;;5.57;2.15;;;7.00;99.90;;;;;;5034320;28;20025;-69
2022/12/08 12:32:05;;;;;;;6.25;2.50;;;7.00;99.90;;;;;;5034350;28;20029;-72
2022/12/08 12:34:35;;;;;;;8.40;2.72;;;6.80;99.90;;;;;;5052457;28;20044;-69
2022/12/08 12:37:13;;;;;;;4.95;1.75;;;6.70;99.90;;;;;;5051852;28;20045;-70
2022/12/08 12:39:51;;;;;;;4.97;2.05;;;6.50;99.90;;;;;;5052611;28;20029;-70
2022/12/08 12:42:40;;;;;;;4.18;2.00;;;6.20;99.90;;;;;;5051654;28;20029;-70
2022/12/08 12:45:20;;;;;;;5.97;1.73;;;5.90;99.90;;;;;;5033744;28;20025;-70
2022/12/08 12:48:12;;;;;;;6.55;1.50;;;5.70;99.90;;;;;;5051444;28;20026;-73
2022/12/08 12:50:46;;;;;;;12.82;2.00;;;5.40;99.90;;;;;;5051666;28;20022;-70
2022/12/08 12:53:15;;;;;;;3.58;1.85;;;5.20;99.90;;;;;;5052950;28;20484;-71
2022/12/08 12:55:52;;;;;;;8.05;2.22;;;5.10;99.90;;;;;;5052957;28;20064;-70
2022/12/08 12:58:33;;;;;;;8.05;2.00;;;4.90;99.90;;;;;;5034577;28;20182;-71
2022/12/08 13:01:11;;;;;;;9.68;2.05;;;4.80;99.90;;;;;;5051110;28;20032;-70
2022/12/08 13:03:44;;;;;;;2.35;1.55;;;4.70;99.90;;;;;;5045982;28;20037;-71
2022/12/08 13:06:12;;;;;;;9.05;2.20;;;4.70;99.90;;;;;;5051987;28;20036;-69
2022/12/08 13:08:41;;;;;;;6.32;1.52;;;4.70;99.90;;;;;;5050816;28;20025;-71
2022/12/08 13:11:10;;;;;;;8.60;2.00;;;4.60;99.90;;;;;;5028440;28;20040;-70